sensor_id;sensor_type;location;lat;lon;timestamp;P1;durP1;ratioP1;P2;durP2;ratioP2
30287;SDS011;17103;48.316;11.558;2022-12-18T00:00:42;40.05;;;20.83;;
30287;SDS011;17103;48.316;11.558;2022-12-18T00:03:08;41.95;;;20.77;;
30287;SDS011;17103;48.316;11.558;2022-12-18T00:05:34;42.65;;;20.85;;
30287;SDS011;17103;48.316;11.558;2022-12-18T00:08:00;43.03;;;18.52;;
30287;SDS011;17103;48.316;11.558;2022-12-18T00:10:27;37.00;;;18.50;;
30287;SDS011;17103;48.316;11.558;2022-12-18T00:12:53;37.92;;;17.85;;
30287;SDS011;17103;48.316;11.558;2022-12-18T00:15:19;39.85;;;19.15;;
30287;SDS011;17103;48.316;11.558;2022-12-18T00:17:45;35.80;;;18.00;;
30287;SDS011;17103;48.316;11.558;2022-12-18T00:20:10;33.92;;;17.85;;
30287;SDS011;17103;48.316;11.558;2022-12-18T00:22:36;36.97;;;18.27;;
30287;SDS011;17103;48.316;11.558;2022-12-18T00:25:02;37.85;;;16.63;;
30287;SDS011;17103;48.316;11.558;2022-12-18T00:27:28;37.42;;;17.40;;
30287;SDS011;17103;48.316;11.558;2022-12-18T00:29:54;36.85;;;18.27;;
30287;SDS011;17103;48.316;11.558;2022-12-18T00:32:20;41.38;;;18.40;;
30287;SDS011;17103;48.316;11.558;2022-12-18T00:34:46;38.42;;;18.20;;
30287;SDS011;17103;48.316;11.558;2022-12-18T00:37:11;39.80;;;19.08;;
30287;SDS011;17103;48.316;11.558;2022-12-18T00:39:37;44.10;;;19.67;;
30287;SDS011;17103;48.316;11.558;2022-12-18T00:42:02;36.13;;;17.23;;
30287;SDS011;17103;48.316;11.558;2022-12-18T00:44:46;37.95;;;19.55;;
30287;SDS011;17103;48.316;11.558;2022-12-18T00:47:12;40.10;;;19.73;;
30287;SDS011;17103;48.316;11.558;2022-12-18T00:49:38;40.17;;;18.00;;
30287;SDS011;17103;48.316;11.558;2022-12-18T00:52:03;39.70;;;19.00;;
30287;SDS011;17103;48.316;11.558;2022-12-18T00:54:29;38.63;;;19.70;;
30287;SDS011;17103;48.316;11.558;2022-12-18T00:56:59;41.38;;;19.42;;
30287;SDS011;17103;48.316;11.558;2022-12-18T01:02:15;35.60;;;17.30;;
30287;SDS011;17103;48.316;11.558;2022-12-18T01:04:40;36.03;;;18.45;;
30287;SDS011;17103;48.316;11.558;2022-12-18T01:07:08;32.10;;;16.67;;
30287;SDS011;17103;48.316;11.558;2022-12-18T01:09:34;34.05;;;18.13;;
30287;SDS011;17103;48.316;11.558;2022-12-18T01:12:00;36.75;;;16.85;;
30287;SDS011;17103;48.316;11.558;2022-12-18T01:14:25;29.38;;;14.68;;
30287;SDS011;17103;48.316;11.558;2022-12-18T01:16:51;27.73;;;14.90;;
30287;SDS011;17103;48.316;11.558;2022-12-18T01:19:17;31.83;;;18.08;;
30287;SDS011;17103;48.316;11.558;2022-12-18T01:21:43;29.42;;;14.85;;
30287;SDS011;17103;48.316;11.558;2022-12-18T01:24:10;36.60;;;16.88;;
30287;SDS011;17103;48.316;11.558;2022-12-18T01:26:37;33.67;;;15.50;;
30287;SDS011;17103;48.316;11.558;2022-12-18T01:29:04;28.63;;;14.02;;
30287;SDS011;17103;48.316;11.558;2022-12-18T01:31:31;31.55;;;14.95;;
30287;SDS011;17103;48.316;11.558;2022-12-18T01:33:58;34.28;;;15.73;;
30287;SDS011;17103;48.316;11.558;2022-12-18T01:36:30;31.33;;;15.40;;
30287;SDS011;17103;48.316;11.558;2022-12-18T01:39:02;32.97;;;15.30;;
30287;SDS011;17103;48.316;11.558;2022-12-18T01:41:30;31.77;;;15.70;;
30287;SDS011;17103;48.316;11.558;2022-12-18T01:52:47;36.80;;;16.90;;
30287;SDS011;17103;48.316;11.558;2022-12-18T01:55:22;31.20;;;15.05;;
30287;SDS011;17103;48.316;11.558;2022-12-18T01:57:54;32.67;;;14.30;;
30287;SDS011;17103;48.316;11.558;2022-12-18T02:00:25;35.72;;;16.35;;
30287;SDS011;17103;48.316;11.558;2022-12-18T02:02:52;30.52;;;15.40;;
30287;SDS011;17103;48.316;11.558;2022-12-18T02:05:34;35.53;;;15.82;;
30287;SDS011;17103;48.316;11.558;2022-12-18T02:13:27;34.20;;;15.07;;
30287;SDS011;17103;48.316;11.558;2022-12-18T02:16:15;30.00;;;14.95;;
30287;SDS011;17103;48.316;11.558;2022-12-18T02:21:50;29.63;;;14.50;;
30287;SDS011;17103;48.316;11.558;2022-12-18T02:27:04;33.40;;;13.80;;
30287;SDS011;17103;48.316;11.558;2022-12-18T02:29:34;32.22;;;15.88;;
30287;SDS011;17103;48.316;11.558;2022-12-18T02:32:20;32.00;;;15.38;;
30287;SDS011;17103;48.316;11.558;2022-12-18T02:34:50;32.93;;;15.37;;
30287;SDS011;17103;48.316;11.558;2022-12-18T02:37:17;28.55;;;14.27;;
30287;SDS011;17103;48.316;11.558;2022-12-18T02:39:44;31.88;;;16.08;;
30287;SDS011;17103;48.316;11.558;2022-12-18T02:42:13;32.60;;;15.95;;
30287;SDS011;17103;48.316;11.558;2022-12-18T02:44:46;31.70;;;14.73;;
30287;SDS011;17103;48.316;11.558;2022-12-18T02:47:14;28.38;;;14.20;;
30287;SDS011;17103;48.316;11.558;2022-12-18T02:57:50;34.13;;;14.57;;
30287;SDS011;17103;48.316;11.558;2022-12-18T03:00:20;35.45;;;15.68;;
30287;SDS011;17103;48.316;11.558;2022-12-18T03:05:38;34.03;;;15.38;;
30287;SDS011;17103;48.316;11.558;2022-12-18T03:08:26;30.17;;;14.48;;
30287;SDS011;17103;48.316;11.558;2022-12-18T03:10:55;29.05;;;14.20;;
30287;SDS011;17103;48.316;11.558;2022-12-18T03:13:25;28.08;;;12.57;;
30287;SDS011;17103;48.316;11.558;2022-12-18T03:15:53;26.20;;;12.70;;
30287;SDS011;17103;48.316;11.558;2022-12-18T03:18:38;27.50;;;13.75;;
30287;SDS011;17103;48.316;11.558;2022-12-18T03:21:08;28.98;;;12.88;;
30287;SDS011;17103;48.316;11.558;2022-12-18T03:23:44;29.17;;;14.23;;
30287;SDS011;17103;48.316;11.558;2022-12-18T03:26:15;26.30;;;13.07;;
30287;SDS011;17103;48.316;11.558;2022-12-18T03:29:07;26.98;;;12.25;;
30287;SDS011;17103;48.316;11.558;2022-12-18T03:31:54;27.58;;;12.68;;
30287;SDS011;17103;48.316;11.558;2022-12-18T03:34:27;27.98;;;13.57;;
30287;SDS011;17103;48.316;11.558;2022-12-18T03:36:56;28.27;;;13.27;;
30287;SDS011;17103;48.316;11.558;2022-12-18T03:39:22;24.58;;;12.90;;
30287;SDS011;17103;48.316;11.558;2022-12-18T03:41:55;27.55;;;13.07;;
30287;SDS011;17103;48.316;11.558;2022-12-18T03:44:41;23.98;;;11.73;;
30287;SDS011;17103;48.316;11.558;2022-12-18T03:47:15;28.95;;;13.77;;
30287;SDS011;17103;48.316;11.558;2022-12-18T03:55:14;29.88;;;13.00;;
30287;SDS011;17103;48.316;11.558;2022-12-18T03:57:41;25.58;;;11.60;;
30287;SDS011;17103;48.316;11.558;2022-12-18T04:00:10;28.95;;;13.18;;
30287;SDS011;17103;48.316;11.558;2022-12-18T04:02:40;28.30;;;12.98;;
30287;SDS011;17103;48.316;11.558;2022-12-18T04:05:10;31.60;;;14.47;;
30287;SDS011;17103;48.316;11.558;2022-12-18T04:07:38;28.00;;;12.60;;
30287;SDS011;17103;48.316;11.558;2022-12-18T04:10:05;29.98;;;12.65;;
30287;SDS011;17103;48.316;11.558;2022-12-18T04:12:33;25.23;;;12.55;;
30287;SDS011;17103;48.316;11.558;2022-12-18T04:14:58;28.45;;;13.23;;
30287;SDS011;17103;48.316;11.558;2022-12-18T04:17:24;27.35;;;12.23;;
30287;SDS011;17103;48.316;11.558;2022-12-18T04:19:50;26.85;;;12.82;;
30287;SDS011;17103;48.316;11.558;2022-12-18T04:22:15;29.30;;;12.50;;
30287;SDS011;17103;48.316;11.558;2022-12-18T04:24:41;32.80;;;14.00;;
30287;SDS011;17103;48.316;11.558;2022-12-18T04:27:07;27.95;;;13.30;;
30287;SDS011;17103;48.316;11.558;2022-12-18T04:29:34;29.38;;;12.30;;
30287;SDS011;17103;48.316;11.558;2022-12-18T04:31:59;27.83;;;13.48;;
30287;SDS011;17103;48.316;11.558;2022-12-18T04:34:26;30.17;;;13.65;;
30287;SDS011;17103;48.316;11.558;2022-12-18T04:36:52;27.02;;;13.63;;
30287;SDS011;17103;48.316;11.558;2022-12-18T04:39:18;24.40;;;12.50;;
30287;SDS011;17103;48.316;11.558;2022-12-18T04:41:46;26.02;;;11.65;;
30287;SDS011;17103;48.316;11.558;2022-12-18T04:44:11;25.23;;;12.68;;
30287;SDS011;17103;48.316;11.558;2022-12-18T04:46:38;26.95;;;12.45;;
30287;SDS011;17103;48.316;11.558;2022-12-18T04:49:03;28.42;;;12.23;;
30287;SDS011;17103;48.316;11.558;2022-12-18T04:51:29;31.20;;;13.32;;
30287;SDS011;17103;48.316;11.558;2022-12-18T04:53:55;26.77;;;12.80;;
30287;SDS011;17103;48.316;11.558;2022-12-18T04:56:21;30.25;;;13.82;;
30287;SDS011;17103;48.316;11.558;2022-12-18T04:58:47;27.52;;;12.20;;
30287;SDS011;17103;48.316;11.558;2022-12-18T05:01:13;27.73;;;12.88;;
30287;SDS011;17103;48.316;11.558;2022-12-18T05:03:40;29.58;;;12.18;;
30287;SDS011;17103;48.316;11.558;2022-12-18T05:06:07;29.67;;;14.10;;
30287;SDS011;17103;48.316;11.558;2022-12-18T05:08:33;24.95;;;12.18;;
30287;SDS011;17103;48.316;11.558;2022-12-18T05:11:00;26.45;;;11.52;;
30287;SDS011;17103;48.316;11.558;2022-12-18T05:13:36;28.70;;;12.60;;
30287;SDS011;17103;48.316;11.558;2022-12-18T05:16:03;24.80;;;12.15;;
30287;SDS011;17103;48.316;11.558;2022-12-18T05:18:29;25.58;;;12.20;;
30287;SDS011;17103;48.316;11.558;2022-12-18T05:20:55;25.20;;;12.15;;
30287;SDS011;17103;48.316;11.558;2022-12-18T05:23:21;25.80;;;12.90;;
30287;SDS011;17103;48.316;11.558;2022-12-18T05:25:54;24.08;;;10.85;;
30287;SDS011;17103;48.316;11.558;2022-12-18T05:28:22;25.63;;;12.35;;
30287;SDS011;17103;48.316;11.558;2022-12-18T05:30:53;21.35;;;10.88;;
30287;SDS011;17103;48.316;11.558;2022-12-18T05:33:22;27.50;;;12.50;;
30287;SDS011;17103;48.316;11.558;2022-12-18T05:36:07;25.60;;;11.85;;
30287;SDS011;17103;48.316;11.558;2022-12-18T05:38:36;25.63;;;13.20;;
30287;SDS011;17103;48.316;11.558;2022-12-18T05:41:04;25.27;;;11.95;;
30287;SDS011;17103;48.316;11.558;2022-12-18T05:43:31;24.13;;;11.57;;
30287;SDS011;17103;48.316;11.558;2022-12-18T05:46:02;26.20;;;13.73;;
30287;SDS011;17103;48.316;11.558;2022-12-18T05:48:32;25.90;;;11.48;;
30287;SDS011;17103;48.316;11.558;2022-12-18T05:51:03;25.63;;;12.68;;
30287;SDS011;17103;48.316;11.558;2022-12-18T05:53:30;26.95;;;14.68;;
30287;SDS011;17103;48.316;11.558;2022-12-18T05:55:59;29.63;;;12.77;;
30287;SDS011;17103;48.316;11.558;2022-12-18T05:58:26;31.15;;;12.18;;
30287;SDS011;17103;48.316;11.558;2022-12-18T06:00:52;30.58;;;13.18;;
30287;SDS011;17103;48.316;11.558;2022-12-18T06:03:17;28.85;;;13.10;;
30287;SDS011;17103;48.316;11.558;2022-12-18T06:05:43;21.85;;;11.88;;
30287;SDS011;17103;48.316;11.558;2022-12-18T06:08:10;25.15;;;12.13;;
30287;SDS011;17103;48.316;11.558;2022-12-18T06:10:37;26.10;;;12.57;;
30287;SDS011;17103;48.316;11.558;2022-12-18T06:13:03;24.67;;;11.98;;
30287;SDS011;17103;48.316;11.558;2022-12-18T06:15:30;26.23;;;12.40;;
30287;SDS011;17103;48.316;11.558;2022-12-18T06:17:55;23.13;;;11.52;;
30287;SDS011;17103;48.316;11.558;2022-12-18T06:20:21;22.73;;;11.13;;
30287;SDS011;17103;48.316;11.558;2022-12-18T06:22:47;24.08;;;11.43;;
30287;SDS011;17103;48.316;11.558;2022-12-18T06:25:13;21.52;;;11.57;;
30287;SDS011;17103;48.316;11.558;2022-12-18T06:27:39;24.65;;;11.27;;
30287;SDS011;17103;48.316;11.558;2022-12-18T06:30:05;24.05;;;12.88;;
30287;SDS011;17103;48.316;11.558;2022-12-18T06:32:31;25.73;;;12.77;;
30287;SDS011;17103;48.316;11.558;2022-12-18T06:34:57;29.55;;;14.95;;
30287;SDS011;17103;48.316;11.558;2022-12-18T06:37:23;28.65;;;14.23;;
30287;SDS011;17103;48.316;11.558;2022-12-18T06:39:52;23.98;;;12.23;;
30287;SDS011;17103;48.316;11.558;2022-12-18T06:42:18;26.17;;;13.07;;
30287;SDS011;17103;48.316;11.558;2022-12-18T06:44:44;28.23;;;13.05;;
30287;SDS011;17103;48.316;11.558;2022-12-18T06:47:10;27.58;;;13.07;;
30287;SDS011;17103;48.316;11.558;2022-12-18T06:49:38;28.77;;;13.55;;
30287;SDS011;17103;48.316;11.558;2022-12-18T06:52:04;23.45;;;12.45;;
30287;SDS011;17103;48.316;11.558;2022-12-18T06:54:29;27.15;;;12.40;;
30287;SDS011;17103;48.316;11.558;2022-12-18T06:56:55;28.58;;;12.68;;
30287;SDS011;17103;48.316;11.558;2022-12-18T06:59:21;30.00;;;13.70;;
30287;SDS011;17103;48.316;11.558;2022-12-18T07:01:46;27.52;;;12.27;;
30287;SDS011;17103;48.316;11.558;2022-12-18T07:04:12;27.83;;;12.55;;
30287;SDS011;17103;48.316;11.558;2022-12-18T07:06:37;29.98;;;15.95;;
30287;SDS011;17103;48.316;11.558;2022-12-18T07:09:03;29.42;;;14.07;;
30287;SDS011;17103;48.316;11.558;2022-12-18T07:11:29;29.85;;;14.70;;
30287;SDS011;17103;48.316;11.558;2022-12-18T07:13:57;27.55;;;13.65;;
30287;SDS011;17103;48.316;11.558;2022-12-18T07:16:24;30.63;;;14.85;;
30287;SDS011;17103;48.316;11.558;2022-12-18T07:18:51;33.38;;;15.88;;
30287;SDS011;17103;48.316;11.558;2022-12-18T07:21:19;31.50;;;14.80;;
30287;SDS011;17103;48.316;11.558;2022-12-18T07:23:45;27.30;;;12.40;;
30287;SDS011;17103;48.316;11.558;2022-12-18T07:26:14;23.77;;;11.13;;
30287;SDS011;17103;48.316;11.558;2022-12-18T07:28:41;24.20;;;10.85;;
30287;SDS011;17103;48.316;11.558;2022-12-18T07:31:11;26.77;;;12.48;;
30287;SDS011;17103;48.316;11.558;2022-12-18T07:33:40;25.95;;;12.07;;
30287;SDS011;17103;48.316;11.558;2022-12-18T07:36:07;24.55;;;11.90;;
30287;SDS011;17103;48.316;11.558;2022-12-18T07:38:34;27.08;;;11.85;;
30287;SDS011;17103;48.316;11.558;2022-12-18T07:41:00;22.42;;;11.40;;
30287;SDS011;17103;48.316;11.558;2022-12-18T07:43:29;27.85;;;12.80;;
30287;SDS011;17103;48.316;11.558;2022-12-18T07:45:55;25.05;;;11.60;;
30287;SDS011;17103;48.316;11.558;2022-12-18T07:48:20;29.80;;;14.13;;
30287;SDS011;17103;48.316;11.558;2022-12-18T07:50:46;25.73;;;13.05;;
30287;SDS011;17103;48.316;11.558;2022-12-18T07:53:11;29.27;;;12.75;;
30287;SDS011;17103;48.316;11.558;2022-12-18T07:55:37;27.13;;;13.40;;
30287;SDS011;17103;48.316;11.558;2022-12-18T07:58:03;28.23;;;14.82;;
30287;SDS011;17103;48.316;11.558;2022-12-18T08:00:29;32.47;;;14.43;;
30287;SDS011;17103;48.316;11.558;2022-12-18T08:02:55;25.38;;;11.75;;
30287;SDS011;17103;48.316;11.558;2022-12-18T08:05:21;26.73;;;13.13;;
30287;SDS011;17103;48.316;11.558;2022-12-18T08:07:48;30.42;;;13.65;;
30287;SDS011;17103;48.316;11.558;2022-12-18T08:10:14;28.13;;;12.85;;
30287;SDS011;17103;48.316;11.558;2022-12-18T08:12:39;30.15;;;13.20;;
30287;SDS011;17103;48.316;11.558;2022-12-18T08:15:05;26.25;;;12.57;;
30287;SDS011;17103;48.316;11.558;2022-12-18T08:17:31;25.35;;;11.82;;
30287;SDS011;17103;48.316;11.558;2022-12-18T08:19:57;26.58;;;11.80;;
30287;SDS011;17103;48.316;11.558;2022-12-18T08:22:23;24.83;;;11.93;;
30287;SDS011;17103;48.316;11.558;2022-12-18T08:24:48;26.38;;;12.65;;
30287;SDS011;17103;48.316;11.558;2022-12-18T08:27:14;24.05;;;11.23;;
30287;SDS011;17103;48.316;11.558;2022-12-18T08:29:39;23.50;;;11.80;;
30287;SDS011;17103;48.316;11.558;2022-12-18T08:32:05;25.17;;;11.75;;
30287;SDS011;17103;48.316;11.558;2022-12-18T08:34:31;24.27;;;11.77;;
30287;SDS011;17103;48.316;11.558;2022-12-18T08:36:56;22.90;;;11.05;;
30287;SDS011;17103;48.316;11.558;2022-12-18T08:39:22;22.17;;;11.90;;
30287;SDS011;17103;48.316;11.558;2022-12-18T08:41:47;24.30;;;12.15;;
30287;SDS011;17103;48.316;11.558;2022-12-18T08:44:33;28.48;;;12.27;;
30287;SDS011;17103;48.316;11.558;2022-12-18T08:47:07;27.95;;;12.68;;
30287;SDS011;17103;48.316;11.558;2022-12-18T08:49:34;26.58;;;12.30;;
30287;SDS011;17103;48.316;11.558;2022-12-18T08:52:00;26.25;;;11.88;;
30287;SDS011;17103;48.316;11.558;2022-12-18T08:54:28;25.58;;;12.38;;
30287;SDS011;17103;48.316;11.558;2022-12-18T08:56:54;27.25;;;12.70;;
30287;SDS011;17103;48.316;11.558;2022-12-18T08:59:19;26.45;;;11.73;;
30287;SDS011;17103;48.316;11.558;2022-12-18T09:01:45;23.23;;;11.02;;
30287;SDS011;17103;48.316;11.558;2022-12-18T09:04:12;24.20;;;11.45;;
30287;SDS011;17103;48.316;11.558;2022-12-18T09:06:39;24.02;;;10.48;;
30287;SDS011;17103;48.316;11.558;2022-12-18T09:09:06;24.58;;;12.00;;
30287;SDS011;17103;48.316;11.558;2022-12-18T09:11:32;27.63;;;12.23;;
30287;SDS011;17103;48.316;11.558;2022-12-18T09:13:58;26.60;;;13.15;;
30287;SDS011;17103;48.316;11.558;2022-12-18T09:16:26;28.20;;;12.63;;
30287;SDS011;17103;48.316;11.558;2022-12-18T09:18:54;28.95;;;13.10;;
30287;SDS011;17103;48.316;11.558;2022-12-18T09:21:24;25.10;;;12.15;;
30287;SDS011;17103;48.316;11.558;2022-12-18T09:23:51;19.70;;;9.73;;
30287;SDS011;17103;48.316;11.558;2022-12-18T09:26:18;19.80;;;9.95;;
30287;SDS011;17103;48.316;11.558;2022-12-18T09:28:43;20.55;;;9.70;;
30287;SDS011;17103;48.316;11.558;2022-12-18T09:31:11;17.55;;;9.63;;
30287;SDS011;17103;48.316;11.558;2022-12-18T09:33:37;19.25;;;10.10;;
30287;SDS011;17103;48.316;11.558;2022-12-18T09:36:05;20.77;;;10.65;;
30287;SDS011;17103;48.316;11.558;2022-12-18T09:38:32;21.02;;;10.32;;
30287;SDS011;17103;48.316;11.558;2022-12-18T09:40:59;23.92;;;10.30;;
30287;SDS011;17103;48.316;11.558;2022-12-18T09:43:50;26.15;;;12.07;;
30287;SDS011;17103;48.316;11.558;2022-12-18T09:46:20;26.15;;;11.35;;
30287;SDS011;17103;48.316;11.558;2022-12-18T09:48:52;22.10;;;10.18;;
30287;SDS011;17103;48.316;11.558;2022-12-18T09:51:29;23.95;;;12.43;;
30287;SDS011;17103;48.316;11.558;2022-12-18T09:54:05;24.38;;;11.77;;
30287;SDS011;17103;48.316;11.558;2022-12-18T09:56:37;24.85;;;11.98;;
30287;SDS011;17103;48.316;11.558;2022-12-18T09:59:08;22.88;;;10.80;;
30287;SDS011;17103;48.316;11.558;2022-12-18T10:01:46;21.52;;;10.57;;
30287;SDS011;17103;48.316;11.558;2022-12-18T10:04:12;19.02;;;9.63;;
30287;SDS011;17103;48.316;11.558;2022-12-18T10:06:44;20.48;;;9.75;;
30287;SDS011;17103;48.316;11.558;2022-12-18T10:12:13;21.15;;;9.80;;
30287;SDS011;17103;48.316;11.558;2022-12-18T10:17:46;23.77;;;10.60;;
30287;SDS011;17103;48.316;11.558;2022-12-18T10:20:29;19.05;;;8.90;;
30287;SDS011;17103;48.316;11.558;2022-12-18T10:25:53;17.67;;;9.23;;
30287;SDS011;17103;48.316;11.558;2022-12-18T10:28:23;16.73;;;8.25;;
30287;SDS011;17103;48.316;11.558;2022-12-18T10:30:51;18.45;;;8.23;;
30287;SDS011;17103;48.316;11.558;2022-12-18T10:33:18;19.35;;;9.32;;
30287;SDS011;17103;48.316;11.558;2022-12-18T10:35:47;19.58;;;9.13;;
30287;SDS011;17103;48.316;11.558;2022-12-18T10:43:29;17.45;;;8.77;;
30287;SDS011;17103;48.316;11.558;2022-12-18T10:48:39;21.02;;;10.63;;
30287;SDS011;17103;48.316;11.558;2022-12-18T10:56:46;20.63;;;10.15;;
30287;SDS011;17103;48.316;11.558;2022-12-18T10:59:13;20.63;;;10.23;;
30287;SDS011;17103;48.316;11.558;2022-12-18T11:01:48;18.52;;;9.85;;
30287;SDS011;17103;48.316;11.558;2022-12-18T11:04:22;23.38;;;10.25;;
30287;SDS011;17103;48.316;11.558;2022-12-18T11:06:53;20.55;;;9.13;;
30287;SDS011;17103;48.316;11.558;2022-12-18T11:09:21;20.13;;;9.98;;
30287;SDS011;17103;48.316;11.558;2022-12-18T11:11:53;17.23;;;8.93;;
30287;SDS011;17103;48.316;11.558;2022-12-18T11:14:29;19.98;;;9.75;;
30287;SDS011;17103;48.316;11.558;2022-12-18T11:16:59;21.05;;;10.77;;
30287;SDS011;17103;48.316;11.558;2022-12-18T11:21:55;20.98;;;10.85;;
30287;SDS011;17103;48.316;11.558;2022-12-18T11:24:27;24.40;;;10.95;;
30287;SDS011;17103;48.316;11.558;2022-12-18T11:27:04;19.70;;;10.02;;
30287;SDS011;17103;48.316;11.558;2022-12-18T11:29:33;18.63;;;9.10;;
30287;SDS011;17103;48.316;11.558;2022-12-18T11:34:51;19.70;;;9.40;;
30287;SDS011;17103;48.316;11.558;2022-12-18T11:37:24;16.60;;;8.88;;
30287;SDS011;17103;48.316;11.558;2022-12-18T11:39:56;21.27;;;9.45;;
30287;SDS011;17103;48.316;11.558;2022-12-18T11:42:42;18.40;;;9.05;;
30287;SDS011;17103;48.316;11.558;2022-12-18T11:50:17;19.33;;;10.00;;
30287;SDS011;17103;48.316;11.558;2022-12-18T11:52:47;19.27;;;11.30;;
30287;SDS011;17103;48.316;11.558;2022-12-18T11:55:56;20.05;;;9.88;;
30287;SDS011;17103;48.316;11.558;2022-12-18T12:06:37;21.90;;;10.07;;
30287;SDS011;17103;48.316;11.558;2022-12-18T12:14:57;19.77;;;10.75;;
30287;SDS011;17103;48.316;11.558;2022-12-18T12:17:42;24.92;;;11.40;;
30287;SDS011;17103;48.316;11.558;2022-12-18T12:20:25;19.70;;;10.68;;
30287;SDS011;17103;48.316;11.558;2022-12-18T12:23:53;21.70;;;10.85;;
30287;SDS011;17103;48.316;11.558;2022-12-18T12:26:55;21.63;;;11.18;;
30287;SDS011;17103;48.316;11.558;2022-12-18T12:43:34;23.02;;;12.20;;
30287;SDS011;17103;48.316;11.558;2022-12-18T12:46:11;24.25;;;12.02;;
30287;SDS011;17103;48.316;11.558;2022-12-18T12:53:53;24.27;;;13.05;;
30287;SDS011;17103;48.316;11.558;2022-12-18T12:56:21;23.88;;;10.82;;
30287;SDS011;17103;48.316;11.558;2022-12-18T13:01:52;23.27;;;11.45;;
30287;SDS011;17103;48.316;11.558;2022-12-18T13:04:40;22.92;;;12.02;;
30287;SDS011;17103;48.316;11.558;2022-12-18T13:07:17;25.25;;;11.07;;
30287;SDS011;17103;48.316;11.558;2022-12-18T13:18:20;19.95;;;11.00;;
30287;SDS011;17103;48.316;11.558;2022-12-18T13:23:29;21.23;;;11.45;;
30287;SDS011;17103;48.316;11.558;2022-12-18T13:26:27;23.02;;;11.60;;
30287;SDS011;17103;48.316;11.558;2022-12-18T13:28:50;23.50;;;12.00;;
30287;SDS011;17103;48.316;11.558;2022-12-18T13:36:42;20.17;;;11.27;;
30287;SDS011;17103;48.316;11.558;2022-12-18T13:39:53;21.50;;;11.00;;
30287;SDS011;17103;48.316;11.558;2022-12-18T13:47:01;20.30;;;10.48;;
30287;SDS011;17103;48.316;11.558;2022-12-18T13:52:21;18.98;;;10.27;;
30287;SDS011;17103;48.316;11.558;2022-12-18T13:54:55;21.17;;;11.32;;
30287;SDS011;17103;48.316;11.558;2022-12-18T13:57:30;25.48;;;12.68;;
30287;SDS011;17103;48.316;11.558;2022-12-18T14:00:14;24.10;;;12.52;;
30287;SDS011;17103;48.316;11.558;2022-12-18T14:02:50;21.50;;;11.85;;
30287;SDS011;17103;48.316;11.558;2022-12-18T14:07:59;21.75;;;11.40;;
30287;SDS011;17103;48.316;11.558;2022-12-18T14:10:47;20.70;;;10.60;;
30287;SDS011;17103;48.316;11.558;2022-12-18T14:13:36;24.23;;;10.60;;
30287;SDS011;17103;48.316;11.558;2022-12-18T14:16:11;22.50;;;10.27;;
30287;SDS011;17103;48.316;11.558;2022-12-18T14:18:48;21.58;;;11.07;;
30287;SDS011;17103;48.316;11.558;2022-12-18T14:21:24;18.55;;;10.00;;
30287;SDS011;17103;48.316;11.558;2022-12-18T14:26:43;22.33;;;10.98;;
30287;SDS011;17103;48.316;11.558;2022-12-18T14:34:34;21.08;;;10.82;;
30287;SDS011;17103;48.316;11.558;2022-12-18T14:37:02;19.42;;;10.00;;
30287;SDS011;17103;48.316;11.558;2022-12-18T14:39:29;19.25;;;10.30;;
30287;SDS011;17103;48.316;11.558;2022-12-18T14:46:54;20.23;;;10.63;;
30287;SDS011;17103;48.316;11.558;2022-12-18T14:51:53;23.23;;;12.23;;
30287;SDS011;17103;48.316;11.558;2022-12-18T14:54:24;20.77;;;10.70;;
30287;SDS011;17103;48.316;11.558;2022-12-18T14:56:59;20.88;;;10.30;;
30287;SDS011;17103;48.316;11.558;2022-12-18T14:59:36;20.05;;;10.18;;
30287;SDS011;17103;48.316;11.558;2022-12-18T15:02:18;19.30;;;9.63;;
30287;SDS011;17103;48.316;11.558;2022-12-18T15:05:35;21.50;;;11.48;;
30287;SDS011;17103;48.316;11.558;2022-12-18T15:07:42;17.35;;;10.07;;
30287;SDS011;17103;48.316;11.558;2022-12-18T15:12:44;20.08;;;10.52;;
30287;SDS011;17103;48.316;11.558;2022-12-18T15:17:59;22.98;;;11.45;;
30287;SDS011;17103;48.316;11.558;2022-12-18T15:20:26;23.25;;;11.02;;
30287;SDS011;17103;48.316;11.558;2022-12-18T15:22:52;23.63;;;11.90;;
30287;SDS011;17103;48.316;11.558;2022-12-18T15:25:31;21.77;;;10.75;;
30287;SDS011;17103;48.316;11.558;2022-12-18T15:27:59;20.83;;;10.80;;
30287;SDS011;17103;48.316;11.558;2022-12-18T15:30:26;24.13;;;10.93;;
30287;SDS011;17103;48.316;11.558;2022-12-18T15:32:52;21.63;;;10.93;;
30287;SDS011;17103;48.316;11.558;2022-12-18T15:35:38;21.52;;;11.23;;
30287;SDS011;17103;48.316;11.558;2022-12-18T15:38:03;23.17;;;11.60;;
30287;SDS011;17103;48.316;11.558;2022-12-18T15:40:29;19.95;;;11.05;;
30287;SDS011;17103;48.316;11.558;2022-12-18T15:42:55;21.98;;;11.20;;
30287;SDS011;17103;48.316;11.558;2022-12-18T15:45:39;22.17;;;11.15;;
30287;SDS011;17103;48.316;11.558;2022-12-18T15:51:04;22.38;;;12.40;;
30287;SDS011;17103;48.316;11.558;2022-12-18T15:53:35;23.95;;;12.52;;
30287;SDS011;17103;48.316;11.558;2022-12-18T15:56:01;24.25;;;12.80;;
30287;SDS011;17103;48.316;11.558;2022-12-18T15:58:45;26.38;;;11.68;;
30287;SDS011;17103;48.316;11.558;2022-12-18T16:01:12;22.90;;;11.48;;
30287;SDS011;17103;48.316;11.558;2022-12-18T16:03:38;20.73;;;10.60;;
30287;SDS011;17103;48.316;11.558;2022-12-18T16:06:03;21.70;;;11.02;;
30287;SDS011;17103;48.316;11.558;2022-12-18T16:08:29;22.95;;;12.02;;
30287;SDS011;17103;48.316;11.558;2022-12-18T16:10:56;20.08;;;10.50;;
30287;SDS011;17103;48.316;11.558;2022-12-18T16:13:22;22.67;;;10.15;;
30287;SDS011;17103;48.316;11.558;2022-12-18T16:15:48;24.33;;;11.45;;
30287;SDS011;17103;48.316;11.558;2022-12-18T16:18:14;22.58;;;10.82;;
30287;SDS011;17103;48.316;11.558;2022-12-18T16:20:39;23.35;;;10.57;;
30287;SDS011;17103;48.316;11.558;2022-12-18T16:23:05;23.98;;;11.45;;
30287;SDS011;17103;48.316;11.558;2022-12-18T16:25:33;23.13;;;12.23;;
30287;SDS011;17103;48.316;11.558;2022-12-18T16:27:59;24.70;;;11.43;;
30287;SDS011;17103;48.316;11.558;2022-12-18T16:30:26;26.70;;;11.82;;
30287;SDS011;17103;48.316;11.558;2022-12-18T16:32:54;23.85;;;12.57;;
30287;SDS011;17103;48.316;11.558;2022-12-18T16:35:20;22.95;;;11.77;;
30287;SDS011;17103;48.316;11.558;2022-12-18T16:37:46;26.90;;;11.50;;
30287;SDS011;17103;48.316;11.558;2022-12-18T16:40:13;25.85;;;12.52;;
30287;SDS011;17103;48.316;11.558;2022-12-18T16:42:41;26.02;;;12.32;;
30287;SDS011;17103;48.316;11.558;2022-12-18T16:45:24;24.50;;;11.70;;
30287;SDS011;17103;48.316;11.558;2022-12-18T16:47:50;23.50;;;12.00;;
30287;SDS011;17103;48.316;11.558;2022-12-18T16:50:16;24.55;;;11.98;;
30287;SDS011;17103;48.316;11.558;2022-12-18T16:52:42;30.83;;;13.95;;
30287;SDS011;17103;48.316;11.558;2022-12-18T16:55:08;26.98;;;13.57;;
30287;SDS011;17103;48.316;11.558;2022-12-18T16:57:34;24.85;;;12.10;;
30287;SDS011;17103;48.316;11.558;2022-12-18T17:00:00;27.08;;;13.65;;
30287;SDS011;17103;48.316;11.558;2022-12-18T17:02:26;25.75;;;12.95;;
30287;SDS011;17103;48.316;11.558;2022-12-18T17:04:56;25.75;;;11.88;;